Time;durP1;ratioP1;P1;durP2;ratioP2;P2;SDS_P1;SDS_P2;PMS_P1;PMS_P2;Temp;Humidity;BMP_temperature;BMP_pressure;BME280_temperature;BME280_humidity;BME280_pressure;Samples;Min_cycle;Max_cycle;Signal;HPM_P1;HPM_P2
2022/03/16 00:01:25;;;;;;;34.72;21.08;;;;;;;;;;4877580;29;20033;-75
2022/03/16 00:03:52;;;;;;;38.10;22.67;;;;;;;;;;4877587;29;20081;-70
2022/03/16 00:06:18;;;;;;;46.53;25.30;;;;;;;;;;4876139;29;20037;-66
2022/03/16 00:08:43;;;;;;;37.78;21.13;;;;;;;;;;4875717;29;20025;-66
2022/03/16 00:11:09;;;;;;;40.55;23.27;;;;;;;;;;4876630;29;20048;-68
2022/03/16 00:13:35;;;;;;;47.97;25.30;;;;;;;;;;4877935;29;20056;-74
2022/03/16 00:16:01;;;;;;;37.15;23.27;;;;;;;;;;4878558;29;20030;-75
2022/03/16 00:18:26;;;;;;;53.90;24.75;;;;;;;;;;4878746;29;20041;-75
2022/03/16 00:20:52;;;;;;;41.35;24.15;;;;;;;;;;4873926;29;20421;-68
2022/03/16 00:23:18;;;;;;;45.17;22.35;;;;;;;;;;4877441;29;20071;-67
2022/03/16 00:25:44;;;;;;;38.60;23.65;;;;;;;;;;4877900;29;20044;-70
2022/03/16 00:28:10;;;;;;;35.80;22.42;;;;;;;;;;4877643;29;20032;-65
2022/03/16 00:30:37;;;;;;;43.03;24.48;;;;;;;;;;4877611;29;20045;-66
2022/03/16 00:33:03;;;;;;;49.08;24.42;;;;;;;;;;4879093;29;20417;-68
2022/03/16 00:35:30;;;;;;;45.15;25.10;;;;;;;;;;4880089;29;20073;-68
2022/03/16 00:37:56;;;;;;;42.28;23.45;;;;;;;;;;4881381;29;20033;-66
2022/03/16 00:40:22;;;;;;;42.22;24.65;;;;;;;;;;4881014;29;20052;-68
2022/03/16 00:42:48;;;;;;;39.17;23.13;;;;;;;;;;4911286;29;20029;-67
2022/03/16 00:45:14;;;;;;;44.50;22.67;;;;;;;;;;4879888;29;20033;-66
2022/03/16 00:47:40;;;;;;;48.85;23.23;;;;;;;;;;4881306;29;20078;-65
2022/03/16 00:50:06;;;;;;;51.05;23.13;;;;;;;;;;4880794;29;20037;-65
2022/03/16 00:52:32;;;;;;;51.13;23.20;;;;;;;;;;4880657;29;20089;-64
2022/03/16 00:54:58;;;;;;;41.33;24.10;;;;;;;;;;4880599;29;20045;-72
2022/03/16 00:57:24;;;;;;;44.00;25.40;;;;;;;;;;4879581;29;20051;-65
2022/03/16 00:59:50;;;;;;;37.38;22.73;;;;;;;;;;4879813;29;20116;-67
2022/03/16 01:02:16;;;;;;;34.78;20.58;;;;;;;;;;4879179;29;20472;-64
2022/03/16 01:04:42;;;;;;;32.92;20.10;;;;;;;;;;4879332;29;20594;-64
2022/03/16 01:07:08;;;;;;;32.05;20.23;;;;;;;;;;4877773;29;20132;-65
2022/03/16 01:09:34;;;;;;;40.08;23.55;;;;;;;;;;4910456;29;20040;-69
2022/03/16 01:12:03;;;;;;;38.55;21.20;;;;;;;;;;4880600;29;20465;-66
2022/03/16 01:14:29;;;;;;;33.58;21.08;;;;;;;;;;4911262;29;20084;-64
2022/03/16 01:16:55;;;;;;;40.30;23.40;;;;;;;;;;4881216;29;20048;-66
2022/03/16 01:19:22;;;;;;;39.10;23.98;;;;;;;;;;4881394;29;20428;-67
2022/03/16 01:21:48;;;;;;;44.42;24.02;;;;;;;;;;4881274;29;20042;-66
2022/03/16 01:24:14;;;;;;;37.25;22.70;;;;;;;;;;4911468;29;20121;-65
2022/03/16 01:26:42;;;;;;;36.00;22.23;;;;;;;;;;4880117;29;20475;-64
2022/03/16 01:29:08;;;;;;;36.47;21.73;;;;;;;;;;4880921;29;20118;-64
2022/03/16 01:31:35;;;;;;;41.95;24.33;;;;;;;;;;4895359;29;20071;-65
2022/03/16 01:34:01;;;;;;;41.70;22.42;;;;;;;;;;4885715;29;20393;-66
2022/03/16 01:36:27;;;;;;;34.05;22.20;;;;;;;;;;4864143;29;20036;-64
2022/03/16 01:38:52;;;;;;;35.20;21.35;;;;;;;;;;4875270;29;20507;-71
2022/03/16 01:41:18;;;;;;;32.33;20.50;;;;;;;;;;4878566;29;20087;-65
2022/03/16 01:43:45;;;;;;;31.30;20.17;;;;;;;;;;4879248;29;20037;-64
2022/03/16 01:46:12;;;;;;;32.70;19.80;;;;;;;;;;4909628;29;20040;-64
2022/03/16 01:48:38;;;;;;;30.25;18.88;;;;;;;;;;4880031;29;20146;-66
2022/03/16 01:51:04;;;;;;;32.33;19.23;;;;;;;;;;4878591;29;20041;-65
2022/03/16 01:53:30;;;;;;;28.77;18.75;;;;;;;;;;4879703;29;20037;-64
2022/03/16 01:55:56;;;;;;;28.63;17.92;;;;;;;;;;4878395;29;20037;-66
2022/03/16 01:58:22;;;;;;;29.98;18.27;;;;;;;;;;4878598;29;20518;-74
2022/03/16 02:00:51;;;;;;;33.85;20.15;;;;;;;;;;4909720;29;20033;-64
2022/03/16 02:03:17;;;;;;;30.02;18.75;;;;;;;;;;4878379;29;20040;-68
2022/03/16 02:05:45;;;;;;;30.52;17.67;;;;;;;;;;4878497;29;20365;-75
2022/03/16 02:08:11;;;;;;;29.33;18.13;;;;;;;;;;4879506;29;20043;-73
2022/03/16 02:10:39;;;;;;;29.55;17.80;;;;;;;;;;4879527;29;20033;-76
2022/03/16 02:13:08;;;;;;;27.10;16.75;;;;;;;;;;4879489;29;20033;-73
2022/03/16 02:15:34;;;;;;;26.95;16.85;;;;;;;;;;4879002;29;20516;-66
2022/03/16 02:18:00;;;;;;;29.05;16.73;;;;;;;;;;4879177;29;20037;-65
2022/03/16 02:20:27;;;;;;;28.08;17.65;;;;;;;;;;4873972;29;20064;-68
2022/03/16 02:22:57;;;;;;;31.05;17.73;;;;;;;;;;4896244;29;20133;-65
2022/03/16 02:25:25;;;;;;;30.50;17.25;;;;;;;;;;4879290;29;20041;-65
2022/03/16 02:27:53;;;;;;;27.83;18.35;;;;;;;;;;4878887;29;20036;-64
2022/03/16 02:30:24;;;;;;;26.88;16.30;;;;;;;;;;4878653;29;20117;-68
2022/03/16 02:32:50;;;;;;;25.55;15.52;;;;;;;;;;4872897;29;20029;-64
2022/03/16 02:35:17;;;;;;;31.33;15.73;;;;;;;;;;4860381;29;20425;-65
2022/03/16 02:37:43;;;;;;;28.35;16.50;;;;;;;;;;4865380;29;20053;-65
2022/03/16 02:40:11;;;;;;;27.40;16.15;;;;;;;;;;4874961;29;20037;-65
2022/03/16 02:42:38;;;;;;;29.15;17.38;;;;;;;;;;4878802;29;20556;-66
2022/03/16 02:45:07;;;;;;;23.92;15.05;;;;;;;;;;4878798;29;20025;-66
2022/03/16 02:47:34;;;;;;;23.35;13.93;;;;;;;;;;4878407;29;20045;-63
2022/03/16 02:50:00;;;;;;;25.98;16.60;;;;;;;;;;4878929;29;20032;-65
2022/03/16 02:52:26;;;;;;;30.95;17.33;;;;;;;;;;4875747;29;20029;-66
2022/03/16 02:54:52;;;;;;;32.20;18.60;;;;;;;;;;4878501;29;20473;-68
2022/03/16 02:57:19;;;;;;;35.22;18.85;;;;;;;;;;4878098;29;20108;-65
2022/03/16 02:59:45;;;;;;;34.53;19.35;;;;;;;;;;4878497;29;20029;-66
2022/03/16 03:02:12;;;;;;;45.42;19.88;;;;;;;;;;4878312;29;20056;-65
2022/03/16 03:04:38;;;;;;;28.95;16.40;;;;;;;;;;4878213;29;20073;-66
2022/03/16 03:07:05;;;;;;;24.92;15.20;;;;;;;;;;4878413;29;20048;-65
2022/03/16 03:09:32;;;;;;;24.48;14.18;;;;;;;;;;4878194;29;20116;-65
2022/03/16 03:11:59;;;;;;;26.48;15.20;;;;;;;;;;4878059;29;20040;-64
2022/03/16 03:14:29;;;;;;;40.25;16.45;;;;;;;;;;4877933;29;20049;-65
2022/03/16 03:16:55;;;;;;;31.95;16.85;;;;;;;;;;4878385;29;20484;-65
2022/03/16 03:19:23;;;;;;;47.10;21.27;;;;;;;;;;4878159;29;20035;-64
2022/03/16 03:21:50;;;;;;;36.92;19.83;;;;;;;;;;4878012;29;20029;-64
2022/03/16 03:24:16;;;;;;;51.75;23.30;;;;;;;;;;4874920;29;20496;-66
2022/03/16 03:26:42;;;;;;;45.53;22.38;;;;;;;;;;4877580;29;20033;-64
2022/03/16 03:29:09;;;;;;;46.33;22.02;;;;;;;;;;4877738;29;20033;-64
2022/03/16 03:31:35;;;;;;;44.08;23.60;;;;;;;;;;4885109;29;20434;-66
2022/03/16 03:34:02;;;;;;;45.58;22.77;;;;;;;;;;4889575;29;20052;-65
2022/03/16 03:36:28;;;;;;;39.92;20.42;;;;;;;;;;4884473;29;20412;-65
2022/03/16 03:38:53;;;;;;;50.05;20.13;;;;;;;;;;4878481;29;20022;-65
2022/03/16 03:41:19;;;;;;;34.13;21.33;;;;;;;;;;4877794;29;20037;-65
2022/03/16 03:43:45;;;;;;;34.75;18.83;;;;;;;;;;4877911;29;20152;-66
2022/03/16 03:46:11;;;;;;;38.80;19.25;;;;;;;;;;4877646;29;20039;-65
2022/03/16 03:48:37;;;;;;;38.05;20.33;;;;;;;;;;4877397;29;20524;-64
2022/03/16 03:51:03;;;;;;;33.22;20.00;;;;;;;;;;4877609;29;20033;-66
2022/03/16 03:53:29;;;;;;;39.83;21.05;;;;;;;;;;4877588;29;20032;-65
2022/03/16 03:55:55;;;;;;;36.63;19.98;;;;;;;;;;4877354;29;20044;-65
2022/03/16 03:58:21;;;;;;;38.47;20.25;;;;;;;;;;4877273;29;20033;-65
2022/03/16 04:00:49;;;;;;;37.13;20.98;;;;;;;;;;4878038;29;20033;-64
2022/03/16 04:03:16;;;;;;;36.33;20.20;;;;;;;;;;4878117;29;20037;-64
2022/03/16 04:05:42;;;;;;;42.33;20.00;;;;;;;;;;4878004;29;20041;-72
2022/03/16 04:08:08;;;;;;;32.05;18.60;;;;;;;;;;4879105;29;20089;-67
2022/03/16 04:10:36;;;;;;;35.50;19.13;;;;;;;;;;4881701;29;20041;-65
2022/03/16 04:13:05;;;;;;;40.17;18.98;;;;;;;;;;4881732;29;20029;-65
2022/03/16 04:15:32;;;;;;;30.70;18.67;;;;;;;;;;4880968;29;20092;-64
2022/03/16 04:17:59;;;;;;;32.83;19.27;;;;;;;;;;4881194;29;20392;-64
2022/03/16 04:20:26;;;;;;;28.63;18.30;;;;;;;;;;4881045;29;20497;-67
2022/03/16 04:22:52;;;;;;;32.85;18.55;;;;;;;;;;4881392;29;20492;-65
2022/03/16 04:25:18;;;;;;;40.25;22.02;;;;;;;;;;4880929;29;20404;-63
2022/03/16 04:27:44;;;;;;;45.60;20.30;;;;;;;;;;4881290;29;20033;-64
2022/03/16 04:30:10;;;;;;;46.17;20.52;;;;;;;;;;4880829;29;20048;-66
2022/03/16 04:32:36;;;;;;;39.28;20.20;;;;;;;;;;4880989;29;20030;-67
2022/03/16 04:35:02;;;;;;;28.88;18.17;;;;;;;;;;4881091;29;20049;-65
2022/03/16 04:37:28;;;;;;;29.27;18.42;;;;;;;;;;4881138;29;20028;-69
2022/03/16 04:39:54;;;;;;;31.40;19.35;;;;;;;;;;4880782;29;20400;-69
2022/03/16 04:42:20;;;;;;;31.45;17.58;;;;;;;;;;4879791;29;20033;-69
2022/03/16 04:44:46;;;;;;;35.90;19.75;;;;;;;;;;4879635;29;20041;-70
2022/03/16 04:47:12;;;;;;;34.50;18.67;;;;;;;;;;4881018;29;20028;-70
2022/03/16 04:49:38;;;;;;;36.40;18.40;;;;;;;;;;4874349;29;20038;-73
2022/03/16 04:52:04;;;;;;;38.58;19.02;;;;;;;;;;4881237;29;20468;-70
2022/03/16 04:54:30;;;;;;;36.55;21.40;;;;;;;;;;4881213;29;20040;-73
2022/03/16 04:56:56;;;;;;;37.13;19.13;;;;;;;;;;4881418;29;20037;-75
2022/03/16 04:59:22;;;;;;;30.83;18.48;;;;;;;;;;4881636;29;20515;-68
2022/03/16 05:01:48;;;;;;;36.30;19.65;;;;;;;;;;4880740;29;20037;-74
2022/03/16 05:04:14;;;;;;;40.38;20.95;;;;;;;;;;4874858;29;20087;-78
2022/03/16 05:06:40;;;;;;;42.67;24.92;;;;;;;;;;4862666;29;20060;-73
2022/03/16 05:09:06;;;;;;;57.25;27.77;;;;;;;;;;4862884;29;20033;-73
2022/03/16 05:11:33;;;;;;;38.42;22.70;;;;;;;;;;4863928;29;20025;-79
2022/03/16 05:14:00;;;;;;;56.72;24.63;;;;;;;;;;4869520;29;20041;-78
2022/03/16 05:16:25;;;;;;;64.10;24.45;;;;;;;;;;4873862;29;20037;-72
2022/03/16 05:18:51;;;;;;;50.75;24.08;;;;;;;;;;4880741;29;20449;-76
2022/03/16 05:21:17;;;;;;;64.22;22.60;;;;;;;;;;4881090;29;20025;-77
2022/03/16 05:23:43;;;;;;;73.50;24.88;;;;;;;;;;4881393;29;20045;-73
2022/03/16 05:26:09;;;;;;;62.53;27.20;;;;;;;;;;4910961;29;20036;-77
2022/03/16 05:28:36;;;;;;;47.60;24.85;;;;;;;;;;4880886;29;20397;-76
2022/03/16 05:31:02;;;;;;;68.35;23.85;;;;;;;;;;4888330;29;20037;-73
2022/03/16 05:33:28;;;;;;;88.95;25.75;;;;;;;;;;4878343;29;20031;-81
2022/03/16 05:35:54;;;;;;;73.05;23.52;;;;;;;;;;4913801;29;20052;-74
2022/03/16 05:38:20;;;;;;;54.28;24.42;;;;;;;;;;4899827;29;20396;-79
2022/03/16 05:40:45;;;;;;;38.22;22.45;;;;;;;;;;4899596;29;20104;-79
2022/03/16 05:43:13;;;;;;;44.50;22.63;;;;;;;;;;4899859;29;20052;-74
2022/03/16 05:45:39;;;;;;;37.72;23.08;;;;;;;;;;4874583;29;20025;-72
2022/03/16 05:48:06;;;;;;;43.78;22.23;;;;;;;;;;4880255;29;20454;-74
2022/03/16 05:50:32;;;;;;;44.10;22.15;;;;;;;;;;4880099;29;20510;-76
2022/03/16 05:52:59;;;;;;;50.10;22.98;;;;;;;;;;4880092;29;20048;-74
2022/03/16 05:55:25;;;;;;;46.92;21.90;;;;;;;;;;4880188;29;20025;-76
2022/03/16 05:57:51;;;;;;;40.75;22.15;;;;;;;;;;4879986;29;20033;-73
2022/03/16 06:00:22;;;;;;;40.25;22.20;;;;;;;;;;4879555;29;20032;-71
2022/03/16 06:02:49;;;;;;;37.58;22.25;;;;;;;;;;4879354;29;20040;-73
2022/03/16 06:05:16;;;;;;;57.45;27.33;;;;;;;;;;4879671;29;20021;-72
2022/03/16 06:07:42;;;;;;;42.85;23.67;;;;;;;;;;4878333;29;20111;-77
2022/03/16 06:10:10;;;;;;;50.20;23.83;;;;;;;;;;4878909;29;20029;-79
2022/03/16 06:12:56;;;;;;;45.55;23.67;;;;;;;;;;4879665;29;20499;-78
2022/03/16 06:15:24;;;;;;;49.83;23.60;;;;;;;;;;4880879;29;20124;-76
2022/03/16 06:17:54;;;;;;;53.50;26.85;;;;;;;;;;4879995;29;20116;-79
2022/03/16 06:20:22;;;;;;;50.50;24.40;;;;;;;;;;4880126;29;20404;-74
2022/03/16 06:22:47;;;;;;;42.33;21.35;;;;;;;;;;4879847;29;20052;-79
2022/03/16 06:25:13;;;;;;;49.55;21.08;;;;;;;;;;4879765;29;20079;-77
2022/03/16 06:27:39;;;;;;;34.03;20.13;;;;;;;;;;4879938;29;20096;-81
2022/03/16 06:30:06;;;;;;;42.47;22.00;;;;;;;;;;4878569;29;20040;-79
2022/03/16 06:32:31;;;;;;;62.20;25.15;;;;;;;;;;4879098;29;20028;-76
2022/03/16 06:34:57;;;;;;;43.63;22.40;;;;;;;;;;4880039;29;20093;-75
2022/03/16 06:37:23;;;;;;;49.35;22.38;;;;;;;;;;4880214;29;20047;-73
2022/03/16 06:39:49;;;;;;;49.95;22.20;;;;;;;;;;4878931;29;20041;-76
2022/03/16 06:42:15;;;;;;;46.40;24.15;;;;;;;;;;4876319;29;20137;-77
2022/03/16 06:44:41;;;;;;;42.70;23.13;;;;;;;;;;4877342;29;20037;-76
2022/03/16 06:47:06;;;;;;;42.08;21.92;;;;;;;;;;4878479;29;20024;-77
2022/03/16 06:49:32;;;;;;;41.63;23.25;;;;;;;;;;4878369;29;20179;-74
2022/03/16 06:51:58;;;;;;;51.85;21.83;;;;;;;;;;4879360;29;20053;-72
2022/03/16 06:54:24;;;;;;;36.35;22.70;;;;;;;;;;4878918;29;20041;-77
2022/03/16 06:56:49;;;;;;;38.58;22.42;;;;;;;;;;4878511;29;20048;-72
2022/03/16 06:59:15;;;;;;;43.42;22.20;;;;;;;;;;4878958;29;20032;-73
2022/03/16 07:01:41;;;;;;;35.85;20.73;;;;;;;;;;4878263;29;20492;-77
2022/03/16 07:04:07;;;;;;;48.35;21.58;;;;;;;;;;4878939;29;20051;-72
2022/03/16 07:06:33;;;;;;;29.85;17.85;;;;;;;;;;4876206;29;20045;-74
2022/03/16 07:08:59;;;;;;;41.42;20.30;;;;;;;;;;4878516;29;20120;-73
2022/03/16 07:11:24;;;;;;;42.58;21.27;;;;;;;;;;4878286;29;20033;-71
2022/03/16 07:16:35;;;;;;;29.67;17.02;;;;;;;;;;4878328;29;20056;-72
2022/03/16 07:19:01;;;;;;;26.80;16.85;;;;;;;;;;4877971;29;20033;-74
2022/03/16 07:21:27;;;;;;;25.90;16.88;;;;;;;;;;4872688;29;20036;-76
2022/03/16 07:23:53;;;;;;;33.20;17.63;;;;;;;;;;4861301;29;20060;-76
2022/03/16 07:26:19;;;;;;;26.17;16.52;;;;;;;;;;4859782;29;20120;-75
2022/03/16 07:28:44;;;;;;;29.92;18.17;;;;;;;;;;4859527;29;20029;-77
2022/03/16 07:31:10;;;;;;;26.38;16.98;;;;;;;;;;4862285;29;20103;-72
2022/03/16 07:33:36;;;;;;;33.92;21.33;;;;;;;;;;4876588;29;20128;-75
2022/03/16 07:36:04;;;;;;;29.58;18.70;;;;;;;;;;4871034;29;20065;-75
2022/03/16 07:38:29;;;;;;;31.83;18.17;;;;;;;;;;4870120;29;20111;-73
2022/03/16 07:40:55;;;;;;;32.25;19.00;;;;;;;;;;4876464;29;20530;-76
2022/03/16 07:43:21;;;;;;;33.20;18.85;;;;;;;;;;4868887;29;20085;-77
2022/03/16 07:45:47;;;;;;;31.38;19.63;;;;;;;;;;4859746;29;20084;-71
2022/03/16 07:48:13;;;;;;;29.40;18.92;;;;;;;;;;4871782;29;20492;-74
2022/03/16 07:50:39;;;;;;;36.65;18.25;;;;;;;;;;4877503;29;20072;-73
2022/03/16 07:53:06;;;;;;;25.02;15.75;;;;;;;;;;4877486;29;20036;-72
2022/03/16 07:55:32;;;;;;;20.17;14.55;;;;;;;;;;4877780;29;20029;-70
2022/03/16 07:57:58;;;;;;;26.27;15.02;;;;;;;;;;4872805;29;20058;-68
2022/03/16 08:00:25;;;;;;;26.90;16.98;;;;;;;;;;4868821;29;20038;-75
2022/03/16 08:02:54;;;;;;;30.40;16.13;;;;;;;;;;4867243;29;21143;-69
2022/03/16 08:05:24;;;;;;;28.70;15.85;;;;;;;;;;4857550;29;20050;-70
2022/03/16 08:07:50;;;;;;;24.80;15.50;;;;;;;;;;4862510;29;20410;-69
2022/03/16 08:10:16;;;;;;;26.77;16.67;;;;;;;;;;4876854;29;20507;-75
2022/03/16 08:12:42;;;;;;;26.95;16.15;;;;;;;;;;4875113;29;20025;-72
2022/03/16 08:15:08;;;;;;;23.92;16.40;;;;;;;;;;4874467;29;20441;-72
2022/03/16 08:17:34;;;;;;;24.90;15.15;;;;;;;;;;4870414;29;20077;-70
2022/03/16 08:20:00;;;;;;;25.48;14.95;;;;;;;;;;4875685;29;20080;-74
2022/03/16 08:22:29;;;;;;;22.60;14.70;;;;;;;;;;4877645;29;20040;-71
2022/03/16 08:24:56;;;;;;;23.23;14.75;;;;;;;;;;4877242;29;20466;-72
2022/03/16 08:27:23;;;;;;;23.38;14.07;;;;;;;;;;4877400;29;20021;-73
2022/03/16 08:29:50;;;;;;;26.23;15.65;;;;;;;;;;4877057;29;20037;-74
2022/03/16 08:32:16;;;;;;;24.13;15.23;;;;;;;;;;4874729;29;20044;-75
2022/03/16 08:34:43;;;;;;;22.80;14.88;;;;;;;;;;4877091;29;20080;-69
2022/03/16 08:37:08;;;;;;;27.48;14.90;;;;;;;;;;4878042;29;20029;-75
2022/03/16 08:39:34;;;;;;;22.65;14.52;;;;;;;;;;4876619;29;20524;-76
2022/03/16 08:42:00;;;;;;;22.25;13.52;;;;;;;;;;4877579;29;20025;-72
2022/03/16 08:44:26;;;;;;;26.05;14.15;;;;;;;;;;4877882;29;20078;-72
2022/03/16 08:46:52;;;;;;;23.13;14.77;;;;;;;;;;4877944;29;20068;-71
2022/03/16 08:49:18;;;;;;;23.90;14.63;;;;;;;;;;4877027;29;20158;-77
2022/03/16 08:51:44;;;;;;;22.17;15.07;;;;;;;;;;4877084;29;20032;-70
2022/03/16 08:54:10;;;;;;;26.45;15.88;;;;;;;;;;4879073;29;20037;-71
2022/03/16 08:56:36;;;;;;;25.02;14.45;;;;;;;;;;4880392;29;20188;-72
2022/03/16 08:59:02;;;;;;;20.67;14.07;;;;;;;;;;4880493;29;20121;-77
2022/03/16 09:01:28;;;;;;;24.08;15.10;;;;;;;;;;4880579;29;20546;-76
2022/03/16 09:03:54;;;;;;;21.58;14.60;;;;;;;;;;4880517;29;20041;-75
2022/03/16 09:06:20;;;;;;;29.60;14.48;;;;;;;;;;4880501;29;20104;-72
2022/03/16 09:08:47;;;;;;;25.90;14.52;;;;;;;;;;4880771;29;20033;-75
2022/03/16 09:11:13;;;;;;;26.27;14.65;;;;;;;;;;4880543;29;20037;-76
2022/03/16 09:13:44;;;;;;;23.42;14.48;;;;;;;;;;4880690;29;20047;-76
2022/03/16 09:16:09;;;;;;;27.73;15.10;;;;;;;;;;4880245;29;20072;-74
2022/03/16 09:18:35;;;;;;;23.17;13.90;;;;;;;;;;4880406;29;20064;-72
2022/03/16 09:21:01;;;;;;;24.65;14.10;;;;;;;;;;4880126;29;20117;-77
2022/03/16 09:23:31;;;;;;;22.35;14.68;;;;;;;;;;4880365;29;20097;-78
2022/03/16 09:25:59;;;;;;;19.50;13.60;;;;;;;;;;4880296;29;20045;-73
2022/03/16 09:28:25;;;;;;;23.20;13.93;;;;;;;;;;4880227;29;20021;-78
2022/03/16 09:30:51;;;;;;;21.40;13.55;;;;;;;;;;4880380;29;20064;-73
2022/03/16 09:33:17;;;;;;;19.38;12.93;;;;;;;;;;4880395;29;20032;-78
2022/03/16 09:35:48;;;;;;;21.67;12.93;;;;;;;;;;4879875;29;20504;-71
2022/03/16 09:38:20;;;;;;;20.50;12.60;;;;;;;;;;4880377;29;20064;-76
2022/03/16 09:40:53;;;;;;;22.27;13.38;;;;;;;;;;4880128;29;20068;-73
2022/03/16 09:43:23;;;;;;;25.90;12.88;;;;;;;;;;4880232;29;20128;-76
2022/03/16 09:45:57;;;;;;;21.83;12.48;;;;;;;;;;4880457;29;20070;-73
2022/03/16 09:48:24;;;;;;;20.75;13.52;;;;;;;;;;4880429;29;20045;-74
2022/03/16 09:50:53;;;;;;;21.92;13.10;;;;;;;;;;4880273;29;20476;-74
2022/03/16 09:53:20;;;;;;;26.63;13.05;;;;;;;;;;4878404;29;20392;-74
2022/03/16 09:55:46;;;;;;;19.33;12.77;;;;;;;;;;4871660;29;20037;-77
2022/03/16 09:58:12;;;;;;;23.52;13.27;;;;;;;;;;4868869;29;20037;-76
2022/03/16 10:00:38;;;;;;;22.65;13.30;;;;;;;;;;4879430;29;20033;-80
2022/03/16 10:03:05;;;;;;;28.38;15.75;;;;;;;;;;4878265;29;20397;-71
2022/03/16 10:05:31;;;;;;;25.80;15.43;;;;;;;;;;4866752;29;20087;-76
2022/03/16 10:08:05;;;;;;;28.77;15.70;;;;;;;;;;4875230;29;20044;-71
2022/03/16 10:13:21;;;;;;;26.10;16.20;;;;;;;;;;4875380;29;20044;-71
2022/03/16 10:15:52;;;;;;;31.15;19.55;;;;;;;;;;4868505;29;20041;-68
2022/03/16 10:18:25;;;;;;;32.25;18.15;;;;;;;;;;4861016;29;20077;-79
2022/03/16 10:20:52;;;;;;;28.15;18.00;;;;;;;;;;4874679;29;20105;-78
2022/03/16 10:23:28;;;;;;;24.70;16.63;;;;;;;;;;4860338;29;20033;-72
2022/03/16 10:25:58;;;;;;;33.35;18.10;;;;;;;;;;4869514;29;20508;-77
2022/03/16 10:28:27;;;;;;;28.45;18.73;;;;;;;;;;4873038;29;20044;-77
2022/03/16 10:30:56;;;;;;;27.10;17.40;;;;;;;;;;4868421;29;20036;-73
2022/03/16 10:33:26;;;;;;;31.08;18.45;;;;;;;;;;4860390;29;20041;-75
2022/03/16 10:36:07;;;;;;;30.20;18.13;;;;;;;;;;4860573;29;20041;-78
2022/03/16 10:38:45;;;;;;;30.27;17.67;;;;;;;;;;4860901;29;20392;-70
2022/03/16 10:47:00;;;;;;;23.10;15.38;;;;;;;;;;4879156;29;20408;-75
2022/03/16 10:49:32;;;;;;;26.35;15.65;;;;;;;;;;4878092;29;20088;-74
2022/03/16 10:52:05;;;;;;;26.63;15.95;;;;;;;;;;4878930;29;20052;-76
2022/03/16 10:54:32;;;;;;;24.20;15.50;;;;;;;;;;4879043;29;20041;-73
2022/03/16 10:57:01;;;;;;;30.35;17.27;;;;;;;;;;4878940;29;20116;-76
2022/03/16 10:59:29;;;;;;;30.00;17.65;;;;;;;;;;4879470;29;20430;-71
2022/03/16 11:02:12;;;;;;;26.05;14.70;;;;;;;;;;4879006;29;20469;-74
2022/03/16 11:04:39;;;;;;;28.13;17.08;;;;;;;;;;4875882;29;20049;-74
2022/03/16 11:07:06;;;;;;;25.83;16.38;;;;;;;;;;4874867;29;20041;-77
2022/03/16 11:09:34;;;;;;;22.95;16.02;;;;;;;;;;4878570;29;20041;-78
2022/03/16 11:14:48;;;;;;;27.55;16.98;;;;;;;;;;4878558;29;20412;-74
2022/03/16 11:17:15;;;;;;;28.25;16.48;;;;;;;;;;4877990;29;20066;-73
2022/03/16 11:19:46;;;;;;;26.13;15.38;;;;;;;;;;4878521;29;20037;-73
2022/03/16 11:22:21;;;;;;;20.15;13.35;;;;;;;;;;4877833;29;20037;-76
2022/03/16 11:24:54;;;;;;;28.17;14.70;;;;;;;;;;4877900;29;20040;-75
2022/03/16 11:27:40;;;;;;;22.80;13.00;;;;;;;;;;4873105;29;20039;-75
2022/03/16 11:30:17;;;;;;;27.38;14.10;;;;;;;;;;4867562;29;20100;-74
2022/03/16 11:32:46;;;;;;;22.50;13.73;;;;;;;;;;4859753;29;20504;-72
2022/03/16 11:35:17;;;;;;;21.08;13.45;;;;;;;;;;4859370;29;20353;-71
2022/03/16 11:37:50;;;;;;;22.88;13.60;;;;;;;;;;4860000;29;20381;-73
2022/03/16 11:40:22;;;;;;;;;;;;;;;;;;4859647;29;20037;-73
2022/03/16 11:43:04;;;;;;;22.02;12.20;;;;;;;;;;4859753;29;20294;-71
2022/03/16 11:45:50;;;;;;;19.83;12.60;;;;;;;;;;4870666;29;20124;-71
2022/03/16 11:48:37;;;;;;;24.83;13.32;;;;;;;;;;4878143;29;20093;-69
2022/03/16 11:51:06;;;;;;;23.67;12.60;;;;;;;;;;4878101;29;20060;-72
2022/03/16 11:53:48;;;;;;;21.00;11.05;;;;;;;;;;4878142;29;20033;-74
2022/03/16 11:56:23;;;;;;;24.10;13.15;;;;;;;;;;4877505;29;20385;-69
2022/03/16 11:58:54;;;;;;;21.95;12.02;;;;;;;;;;4877716;29;20037;-70
2022/03/16 12:01:28;;;;;;;20.95;11.75;;;;;;;;;;4877885;29;20072;-71
2022/03/16 12:04:08;;;;;;;18.55;12.23;;;;;;;;;;4877882;29;20055;-72
2022/03/16 12:06:54;;;;;;;24.50;11.63;;;;;;;;;;4877802;29;20044;-72
2022/03/16 12:09:41;;;;;;;18.63;11.77;;;;;;;;;;4877714;29;20037;-70
2022/03/16 12:15:01;;;;;;;20.55;11.00;;;;;;;;;;4878064;29;20037;-71
2022/03/16 12:17:28;;;;;;;16.38;9.90;;;;;;;;;;4877973;29;20037;-74
2022/03/16 12:20:15;;;;;;;22.58;10.63;;;;;;;;;;4877908;29;20047;-75
2022/03/16 12:22:47;;;;;;;15.90;10.15;;;;;;;;;;4877835;29;20392;-70
2022/03/16 12:25:29;;;;;;;15.52;10.55;;;;;;;;;;4877789;29;20047;-76
2022/03/16 12:30:54;;;;;;;16.98;11.10;;;;;;;;;;4881539;29;20036;-72
2022/03/16 12:33:25;;;;;;;21.23;11.13;;;;;;;;;;4881767;29;20048;-75
2022/03/16 12:36:14;;;;;;;23.48;11.45;;;;;;;;;;4881622;29;20029;-70
2022/03/16 12:38:47;;;;;;;19.02;11.27;;;;;;;;;;4881979;29;20116;-72
2022/03/16 12:44:04;;;;;;;17.52;10.82;;;;;;;;;;4881612;29;20280;-72
2022/03/16 12:46:52;;;;;;;19.25;10.85;;;;;;;;;;4881466;29;20033;-70
2022/03/16 12:49:20;;;;;;;17.95;10.68;;;;;;;;;;4881718;29;20045;-71
2022/03/16 12:51:54;;;;;;;18.13;11.63;;;;;;;;;;4881718;29;20021;-69
2022/03/16 12:54:23;;;;;;;16.67;11.07;;;;;;;;;;4881514;29;20045;-68
2022/03/16 12:56:51;;;;;;;17.98;11.82;;;;;;;;;;4881418;29;20073;-68
2022/03/16 12:59:26;;;;;;;16.63;11.43;;;;;;;;;;4895366;29;20033;-71
2022/03/16 13:01:54;;;;;;;21.27;12.85;;;;;;;;;;4880493;29;20442;-70
2022/03/16 13:04:23;;;;;;;20.15;11.65;;;;;;;;;;4881031;29;20069;-69
2022/03/16 13:06:52;;;;;;;18.48;11.98;;;;;;;;;;4880769;29;20033;-69
2022/03/16 13:09:18;;;;;;;18.05;10.23;;;;;;;;;;4881448;29;20093;-70
2022/03/16 13:11:45;;;;;;;15.00;9.13;;;;;;;;;;4881183;29;20433;-69
2022/03/16 13:14:19;;;;;;;19.08;9.60;;;;;;;;;;4880959;29;20045;-69
2022/03/16 13:16:47;;;;;;;13.00;8.30;;;;;;;;;;4881314;29;20045;-70
2022/03/16 13:19:25;;;;;;;12.52;8.50;;;;;;;;;;4881433;29;20033;-68
2022/03/16 13:22:03;;;;;;;13.55;9.05;;;;;;;;;;4880007;29;20074;-67
2022/03/16 13:24:39;;;;;;;17.15;9.25;;;;;;;;;;4881205;29;20045;-69
2022/03/16 13:27:08;;;;;;;19.45;9.95;;;;;;;;;;4881086;29;20135;-68
2022/03/16 13:29:38;;;;;;;13.73;9.50;;;;;;;;;;4881190;29;20476;-70
2022/03/16 13:32:06;;;;;;;14.63;8.57;;;;;;;;;;4881021;29;20044;-71
2022/03/16 13:34:39;;;;;;;21.63;9.30;;;;;;;;;;4880993;29;20108;-71
2022/03/16 13:37:22;;;;;;;12.50;8.40;;;;;;;;;;4880812;29;20052;-69
2022/03/16 13:40:00;;;;;;;15.50;8.88;;;;;;;;;;4880525;29;20076;-69
2022/03/16 13:42:28;;;;;;;12.93;8.98;;;;;;;;;;4879877;29;20493;-69
2022/03/16 13:45:11;;;;;;;19.98;9.57;;;;;;;;;;4880112;29;20068;-72
2022/03/16 13:47:37;;;;;;;13.02;8.85;;;;;;;;;;4881032;29;20033;-70
2022/03/16 13:50:03;;;;;;;15.75;9.13;;;;;;;;;;4880822;29;20358;-70
2022/03/16 13:52:39;;;;;;;15.55;9.38;;;;;;;;;;4880776;29;20033;-70
2022/03/16 13:55:13;;;;;;;18.15;9.70;;;;;;;;;;4880824;29;20345;-70
2022/03/16 13:57:42;;;;;;;18.52;9.25;;;;;;;;;;4880705;29;20507;-72
2022/03/16 14:00:13;;;;;;;13.95;8.55;;;;;;;;;;4880225;29;20088;-69
2022/03/16 14:02:41;;;;;;;20.50;13.13;;;;;;;;;;4880509;29;20041;-69
2022/03/16 14:05:19;;;;;;;12.48;7.63;;;;;;;;;;4880612;29;20033;-70
2022/03/16 14:07:48;;;;;;;9.27;6.78;;;;;;;;;;4880587;29;20041;-70
2022/03/16 14:10:20;;;;;;;9.63;7.18;;;;;;;;;;4880374;29;20033;-70
2022/03/16 14:12:46;;;;;;;11.23;7.85;;;;;;;;;;4880376;29;20044;-70
2022/03/16 14:15:17;;;;;;;11.85;7.60;;;;;;;;;;4880460;29;20053;-77
2022/03/16 14:18:01;;;;;;;12.15;7.47;;;;;;;;;;4880195;29;20076;-74
2022/03/16 14:20:31;;;;;;;10.98;8.10;;;;;;;;;;4880202;29;20029;-75
2022/03/16 14:22:57;;;;;;;12.25;7.63;;;;;;;;;;4880177;29;20125;-74
2022/03/16 14:25:24;;;;;;;10.18;7.72;;;;;;;;;;4880111;29;20105;-72
2022/03/16 14:27:52;;;;;;;10.95;7.88;;;;;;;;;;4880248;29;20510;-75
2022/03/16 14:30:21;;;;;;;13.98;7.53;;;;;;;;;;4880112;29;20033;-72
2022/03/16 14:32:49;;;;;;;11.30;7.15;;;;;;;;;;4880167;29;20109;-72
2022/03/16 14:35:16;;;;;;;10.20;6.97;;;;;;;;;;4880013;29;20403;-71
2022/03/16 14:37:43;;;;;;;13.00;7.53;;;;;;;;;;4880012;29;20473;-68
2022/03/16 14:40:11;;;;;;;11.35;7.65;;;;;;;;;;4879669;29;20021;-70
2022/03/16 14:42:39;;;;;;;13.35;7.78;;;;;;;;;;4877505;29;20063;-70
2022/03/16 14:45:05;;;;;;;14.18;7.82;;;;;;;;;;4879453;29;20388;-76
2022/03/16 14:47:31;;;;;;;11.52;6.65;;;;;;;;;;4878182;29;20070;-70